sensor_id;sensor_type;location;lat;lon;timestamp;temperature;humidity
46340;DHT22;47273;49.274;8.708;2023-02-01T00:01:09;5.50;99.90
46340;DHT22;47273;49.274;8.708;2023-02-01T00:03:35;5.50;99.90
46340;DHT22;47273;49.274;8.708;2023-02-01T00:06:01;5.50;99.90
46340;DHT22;47273;49.274;8.708;2023-02-01T00:08:30;5.50;99.90
46340;DHT22;47273;49.274;8.708;2023-02-01T00:11:09;5.50;99.90
46340;DHT22;47273;49.274;8.708;2023-02-01T00:13:38;5.50;99.90
46340;DHT22;47273;49.274;8.708;2023-02-01T00:16:28;5.50;99.90
46340;DHT22;47273;49.274;8.708;2023-02-01T00:19:04;5.50;99.90
46340;DHT22;47273;49.274;8.708;2023-02-01T00:21:30;5.50;99.90
46340;DHT22;47273;49.274;8.708;2023-02-01T00:23:57;5.50;99.90
46340;DHT22;47273;49.274;8.708;2023-02-01T00:28:51;5.50;99.90
46340;DHT22;47273;49.274;8.708;2023-02-01T00:31:17;5.50;99.90
46340;DHT22;47273;49.274;8.708;2023-02-01T00:33:42;5.50;99.90
46340;DHT22;47273;49.274;8.708;2023-02-01T00:36:12;5.60;99.90
46340;DHT22;47273;49.274;8.708;2023-02-01T00:38:38;5.50;99.90
46340;DHT22;47273;49.274;8.708;2023-02-01T00:43:59;5.60;99.90
46340;DHT22;47273;49.274;8.708;2023-02-01T00:46:25;5.60;99.90
46340;DHT22;47273;49.274;8.708;2023-02-01T00:48:51;5.60;99.90
46340;DHT22;47273;49.274;8.708;2023-02-01T00:51:27;5.60;99.90
46340;DHT22;47273;49.274;8.708;2023-02-01T00:53:53;5.60;99.90
46340;DHT22;47273;49.274;8.708;2023-02-01T00:56:19;5.60;99.90
46340;DHT22;47273;49.274;8.708;2023-02-01T00:58:45;5.60;99.90
46340;DHT22;47273;49.274;8.708;2023-02-01T01:01:20;5.60;99.90
46340;DHT22;47273;49.274;8.708;2023-02-01T01:03:49;5.60;99.90
46340;DHT22;47273;49.274;8.708;2023-02-01T01:06:19;5.60;99.90
46340;DHT22;47273;49.274;8.708;2023-02-01T01:08:46;5.60;99.90
46340;DHT22;47273;49.274;8.708;2023-02-01T01:11:15;5.60;99.90
46340;DHT22;47273;49.274;8.708;2023-02-01T01:13:41;5.60;99.90
46340;DHT22;47273;49.274;8.708;2023-02-01T01:16:09;5.60;99.90
46340;DHT22;47273;49.274;8.708;2023-02-01T01:18:35;5.60;99.90
46340;DHT22;47273;49.274;8.708;2023-02-01T01:21:01;5.60;99.90
46340;DHT22;47273;49.274;8.708;2023-02-01T01:23:27;5.70;99.90
46340;DHT22;47273;49.274;8.708;2023-02-01T01:25:53;5.70;99.90
46340;DHT22;47273;49.274;8.708;2023-02-01T01:28:19;5.60;99.90
46340;DHT22;47273;49.274;8.708;2023-02-01T01:30:44;5.70;99.90
46340;DHT22;47273;49.274;8.708;2023-02-01T01:33:10;5.70;99.90
46340;DHT22;47273;49.274;8.708;2023-02-01T01:35:36;5.70;99.90
46340;DHT22;47273;49.274;8.708;2023-02-01T01:38:02;5.60;99.90
46340;DHT22;47273;49.274;8.708;2023-02-01T01:40:29;5.70;99.90
46340;DHT22;47273;49.274;8.708;2023-02-01T01:42:55;5.70;99.90
46340;DHT22;47273;49.274;8.708;2023-02-01T01:45:25;5.70;99.90
46340;DHT22;47273;49.274;8.708;2023-02-01T01:47:56;5.70;99.90
46340;DHT22;47273;49.274;8.708;2023-02-01T01:50:46;5.70;99.90
46340;DHT22;47273;49.274;8.708;2023-02-01T01:53:17;5.70;99.90
46340;DHT22;47273;49.274;8.708;2023-02-01T01:55:46;5.70;99.90
46340;DHT22;47273;49.274;8.708;2023-02-01T01:58:18;5.70;99.90
46340;DHT22;47273;49.274;8.708;2023-02-01T02:00:45;5.70;99.90
46340;DHT22;47273;49.274;8.708;2023-02-01T02:05:40;5.70;99.90
46340;DHT22;47273;49.274;8.708;2023-02-01T02:08:06;5.70;99.90
46340;DHT22;47273;49.274;8.708;2023-02-01T02:10:32;5.70;99.90
46340;DHT22;47273;49.274;8.708;2023-02-01T02:13:17;5.70;99.90
46340;DHT22;47273;49.274;8.708;2023-02-01T02:35:01;5.70;99.90
46340;DHT22;47273;49.274;8.708;2023-02-01T02:37:50;5.70;99.90
46340;DHT22;47273;49.274;8.708;2023-02-01T02:40:32;5.70;99.90
46340;DHT22;47273;49.274;8.708;2023-02-01T02:49:10;5.80;99.90
46340;DHT22;47273;49.274;8.708;2023-02-01T02:51:41;5.70;99.90
46340;DHT22;47273;49.274;8.708;2023-02-01T02:54:30;5.70;99.90
46340;DHT22;47273;49.274;8.708;2023-02-01T02:57:20;5.70;99.90
46340;DHT22;47273;49.274;8.708;2023-02-01T03:00:11;5.70;99.90
46340;DHT22;47273;49.274;8.708;2023-02-01T03:02:56;5.80;99.90
46340;DHT22;47273;49.274;8.708;2023-02-01T03:05:45;5.70;99.90
46340;DHT22;47273;49.274;8.708;2023-02-01T03:08:30;5.80;99.90
46340;DHT22;47273;49.274;8.708;2023-02-01T03:11:09;5.80;99.90
46340;DHT22;47273;49.274;8.708;2023-02-01T03:19:02;5.80;99.90
46340;DHT22;47273;49.274;8.708;2023-02-01T03:24:00;5.80;99.90
46340;DHT22;47273;49.274;8.708;2023-02-01T03:26:29;5.80;99.90
46340;DHT22;47273;49.274;8.708;2023-02-01T03:29:02;5.80;99.90
46340;DHT22;47273;49.274;8.708;2023-02-01T03:31:31;5.80;99.90
46340;DHT22;47273;49.274;8.708;2023-02-01T03:33:57;5.80;99.90
46340;DHT22;47273;49.274;8.708;2023-02-01T03:36:39;5.70;99.90
46340;DHT22;47273;49.274;8.708;2023-02-01T03:41:53;5.80;99.90
46340;DHT22;47273;49.274;8.708;2023-02-01T03:44:29;5.80;99.90
46340;DHT22;47273;49.274;8.708;2023-02-01T03:49:45;5.80;99.90
46340;DHT22;47273;49.274;8.708;2023-02-01T03:52:14;5.80;99.90
46340;DHT22;47273;49.274;8.708;2023-02-01T03:54:42;5.80;99.90
46340;DHT22;47273;49.274;8.708;2023-02-01T03:57:12;5.80;99.90
46340;DHT22;47273;49.274;8.708;2023-02-01T03:59:40;5.80;99.90
46340;DHT22;47273;49.274;8.708;2023-02-01T04:02:07;5.80;99.90
46340;DHT22;47273;49.274;8.708;2023-02-01T04:04:34;5.80;99.90
46340;DHT22;47273;49.274;8.708;2023-02-01T04:06:59;5.80;99.90
46340;DHT22;47273;49.274;8.708;2023-02-01T04:09:25;5.80;99.90
46340;DHT22;47273;49.274;8.708;2023-02-01T04:11:51;5.80;99.90
46340;DHT22;47273;49.274;8.708;2023-02-01T04:14:16;5.80;99.90
46340;DHT22;47273;49.274;8.708;2023-02-01T04:16:42;5.80;99.90
46340;DHT22;47273;49.274;8.708;2023-02-01T04:19:08;5.80;99.90
46340;DHT22;47273;49.274;8.708;2023-02-01T04:21:33;5.80;99.90
46340;DHT22;47273;49.274;8.708;2023-02-01T04:23:59;5.80;99.90
46340;DHT22;47273;49.274;8.708;2023-02-01T04:26:25;5.90;99.90
46340;DHT22;47273;49.274;8.708;2023-02-01T04:28:50;5.80;99.90
46340;DHT22;47273;49.274;8.708;2023-02-01T04:31:18;5.80;99.90
46340;DHT22;47273;49.274;8.708;2023-02-01T04:33:54;5.80;99.90
46340;DHT22;47273;49.274;8.708;2023-02-01T04:36:21;5.80;99.90
46340;DHT22;47273;49.274;8.708;2023-02-01T04:38:51;5.80;99.90
46340;DHT22;47273;49.274;8.708;2023-02-01T04:41:20;5.80;99.90
46340;DHT22;47273;49.274;8.708;2023-02-01T04:43:48;5.90;99.90
46340;DHT22;47273;49.274;8.708;2023-02-01T04:46:14;5.80;99.90
46340;DHT22;47273;49.274;8.708;2023-02-01T04:48:40;5.80;99.90
46340;DHT22;47273;49.274;8.708;2023-02-01T04:51:06;5.80;99.90
46340;DHT22;47273;49.274;8.708;2023-02-01T04:53:32;5.80;99.90
46340;DHT22;47273;49.274;8.708;2023-02-01T04:55:57;5.90;99.90
46340;DHT22;47273;49.274;8.708;2023-02-01T04:58:23;5.90;99.90
46340;DHT22;47273;49.274;8.708;2023-02-01T05:01:03;5.90;99.90
46340;DHT22;47273;49.274;8.708;2023-02-01T05:03:31;5.80;99.90
46340;DHT22;47273;49.274;8.708;2023-02-01T05:05:56;5.90;99.90
46340;DHT22;47273;49.274;8.708;2023-02-01T05:08:22;5.80;99.90
46340;DHT22;47273;49.274;8.708;2023-02-01T05:10:48;5.80;99.90
46340;DHT22;47273;49.274;8.708;2023-02-01T05:13:14;5.80;99.90
46340;DHT22;47273;49.274;8.708;2023-02-01T05:15:58;5.70;99.90
46340;DHT22;47273;49.274;8.708;2023-02-01T05:18:23;5.70;99.90
46340;DHT22;47273;49.274;8.708;2023-02-01T05:20:49;5.80;99.90
46340;DHT22;47273;49.274;8.708;2023-02-01T05:23:15;5.70;99.90
46340;DHT22;47273;49.274;8.708;2023-02-01T05:25:40;5.70;99.90
46340;DHT22;47273;49.274;8.708;2023-02-01T05:28:06;5.70;99.90
46340;DHT22;47273;49.274;8.708;2023-02-01T05:30:32;5.70;99.90
46340;DHT22;47273;49.274;8.708;2023-02-01T05:33:00;5.70;99.90
46340;DHT22;47273;49.274;8.708;2023-02-01T05:35:26;5.70;99.90
46340;DHT22;47273;49.274;8.708;2023-02-01T05:37:52;5.70;99.90
46340;DHT22;47273;49.274;8.708;2023-02-01T05:40:18;5.70;99.90
46340;DHT22;47273;49.274;8.708;2023-02-01T05:42:43;5.70;99.90
46340;DHT22;47273;49.274;8.708;2023-02-01T05:45:09;5.70;99.90
46340;DHT22;47273;49.274;8.708;2023-02-01T05:47:35;5.70;99.90
46340;DHT22;47273;49.274;8.708;2023-02-01T05:50:02;5.70;99.90
46340;DHT22;47273;49.274;8.708;2023-02-01T05:52:28;5.70;99.90
46340;DHT22;47273;49.274;8.708;2023-02-01T05:54:54;5.70;99.90
46340;DHT22;47273;49.274;8.708;2023-02-01T05:57:19;5.70;99.90
46340;DHT22;47273;49.274;8.708;2023-02-01T05:59:45;5.70;99.90
46340;DHT22;47273;49.274;8.708;2023-02-01T06:02:11;5.70;99.90
46340;DHT22;47273;49.274;8.708;2023-02-01T06:04:37;5.70;99.90
46340;DHT22;47273;49.274;8.708;2023-02-01T06:07:04;5.70;99.90
46340;DHT22;47273;49.274;8.708;2023-02-01T06:09:31;5.70;99.90
46340;DHT22;47273;49.274;8.708;2023-02-01T06:11:56;5.70;99.90
46340;DHT22;47273;49.274;8.708;2023-02-01T06:14:26;5.70;99.90
46340;DHT22;47273;49.274;8.708;2023-02-01T06:16:53;5.70;99.90
46340;DHT22;47273;49.274;8.708;2023-02-01T06:19:19;5.70;99.90
46340;DHT22;47273;49.274;8.708;2023-02-01T06:21:45;5.70;99.90
46340;DHT22;47273;49.274;8.708;2023-02-01T06:24:12;5.70;99.90
46340;DHT22;47273;49.274;8.708;2023-02-01T06:26:39;5.70;99.90
46340;DHT22;47273;49.274;8.708;2023-02-01T06:29:11;5.70;99.90
46340;DHT22;47273;49.274;8.708;2023-02-01T06:31:38;5.60;99.90
46340;DHT22;47273;49.274;8.708;2023-02-01T06:34:04;5.60;99.90
46340;DHT22;47273;49.274;8.708;2023-02-01T06:36:29;5.60;99.90
46340;DHT22;47273;49.274;8.708;2023-02-01T06:38:56;5.60;99.90
46340;DHT22;47273;49.274;8.708;2023-02-01T06:41:25;5.60;99.90
46340;DHT22;47273;49.274;8.708;2023-02-01T06:43:51;5.70;99.90
46340;DHT22;47273;49.274;8.708;2023-02-01T06:46:26;5.60;99.90
46340;DHT22;47273;49.274;8.708;2023-02-01T06:48:51;5.60;99.90
46340;DHT22;47273;49.274;8.708;2023-02-01T06:51:25;5.60;99.90
46340;DHT22;47273;49.274;8.708;2023-02-01T06:53:52;5.70;99.90
46340;DHT22;47273;49.274;8.708;2023-02-01T06:56:18;5.60;99.90
46340;DHT22;47273;49.274;8.708;2023-02-01T06:58:44;5.60;99.90
46340;DHT22;47273;49.274;8.708;2023-02-01T07:01:10;5.60;99.90
46340;DHT22;47273;49.274;8.708;2023-02-01T07:03:36;5.70;99.90
46340;DHT22;47273;49.274;8.708;2023-02-01T07:06:02;5.60;99.90
46340;DHT22;47273;49.274;8.708;2023-02-01T07:08:29;5.70;99.90
46340;DHT22;47273;49.274;8.708;2023-02-01T07:10:55;5.70;99.90
46340;DHT22;47273;49.274;8.708;2023-02-01T07:13:21;5.70;99.90
46340;DHT22;47273;49.274;8.708;2023-02-01T07:15:47;5.70;99.90
46340;DHT22;47273;49.274;8.708;2023-02-01T07:18:14;5.70;99.90
46340;DHT22;47273;49.274;8.708;2023-02-01T07:20:40;5.70;99.90
46340;DHT22;47273;49.274;8.708;2023-02-01T07:23:07;5.70;99.90
46340;DHT22;47273;49.274;8.708;2023-02-01T07:25:34;5.70;99.90
46340;DHT22;47273;49.274;8.708;2023-02-01T07:28:00;5.80;99.90
46340;DHT22;47273;49.274;8.708;2023-02-01T07:30:26;5.80;99.90
46340;DHT22;47273;49.274;8.708;2023-02-01T07:32:55;5.80;99.90
46340;DHT22;47273;49.274;8.708;2023-02-01T07:35:38;5.80;99.90
46340;DHT22;47273;49.274;8.708;2023-02-01T07:38:04;5.80;99.90
46340;DHT22;47273;49.274;8.708;2023-02-01T07:40:30;5.80;99.90
46340;DHT22;47273;49.274;8.708;2023-02-01T07:42:55;5.80;99.90
46340;DHT22;47273;49.274;8.708;2023-02-01T07:45:22;5.80;99.90
46340;DHT22;47273;49.274;8.708;2023-02-01T07:47:48;5.80;99.90
46340;DHT22;47273;49.274;8.708;2023-02-01T07:50:16;5.80;99.90
46340;DHT22;47273;49.274;8.708;2023-02-01T07:52:42;5.80;99.90
46340;DHT22;47273;49.274;8.708;2023-02-01T07:55:08;5.80;99.90
46340;DHT22;47273;49.274;8.708;2023-02-01T07:57:34;5.80;99.90
46340;DHT22;47273;49.274;8.708;2023-02-01T07:59:59;5.80;99.90
46340;DHT22;47273;49.274;8.708;2023-02-01T08:02:44;5.80;99.90
46340;DHT22;47273;49.274;8.708;2023-02-01T08:05:09;5.80;99.90
46340;DHT22;47273;49.274;8.708;2023-02-01T08:07:35;5.80;99.90
46340;DHT22;47273;49.274;8.708;2023-02-01T08:10:01;5.90;99.90
46340;DHT22;47273;49.274;8.708;2023-02-01T08:12:26;5.90;99.90
46340;DHT22;47273;49.274;8.708;2023-02-01T08:14:53;5.90;99.90
46340;DHT22;47273;49.274;8.708;2023-02-01T08:17:19;5.90;99.90
46340;DHT22;47273;49.274;8.708;2023-02-01T08:19:45;5.90;99.90
46340;DHT22;47273;49.274;8.708;2023-02-01T08:22:11;5.90;99.90
46340;DHT22;47273;49.274;8.708;2023-02-01T08:24:36;5.90;99.90
46340;DHT22;47273;49.274;8.708;2023-02-01T08:27:06;5.90;99.90
46340;DHT22;47273;49.274;8.708;2023-02-01T08:29:34;5.90;99.90
46340;DHT22;47273;49.274;8.708;2023-02-01T08:31:59;5.90;99.90
46340;DHT22;47273;49.274;8.708;2023-02-01T08:34:25;5.90;99.90
46340;DHT22;47273;49.274;8.708;2023-02-01T08:36:52;5.90;99.90
46340;DHT22;47273;49.274;8.708;2023-02-01T08:39:22;5.90;99.90
46340;DHT22;47273;49.274;8.708;2023-02-01T08:41:48;6.00;99.90
46340;DHT22;47273;49.274;8.708;2023-02-01T08:44:34;6.00;99.90
46340;DHT22;47273;49.274;8.708;2023-02-01T08:46:59;6.10;99.90
46340;DHT22;47273;49.274;8.708;2023-02-01T08:49:25;6.20;99.90
46340;DHT22;47273;49.274;8.708;2023-02-01T08:51:51;6.40;99.90
46340;DHT22;47273;49.274;8.708;2023-02-01T08:54:16;6.40;99.90
46340;DHT22;47273;49.274;8.708;2023-02-01T08:56:42;6.60;99.90
46340;DHT22;47273;49.274;8.708;2023-02-01T08:59:08;6.70;99.90
46340;DHT22;47273;49.274;8.708;2023-02-01T09:01:33;6.80;99.90
46340;DHT22;47273;49.274;8.708;2023-02-01T09:03:59;6.70;99.90
46340;DHT22;47273;49.274;8.708;2023-02-01T09:06:25;6.70;99.90
46340;DHT22;47273;49.274;8.708;2023-02-01T09:08:50;6.70;99.90
46340;DHT22;47273;49.274;8.708;2023-02-01T09:11:17;6.70;99.90
46340;DHT22;47273;49.274;8.708;2023-02-01T09:13:44;6.70;99.90
46340;DHT22;47273;49.274;8.708;2023-02-01T09:16:10;6.70;99.90
46340;DHT22;47273;49.274;8.708;2023-02-01T09:18:37;6.70;99.90
46340;DHT22;47273;49.274;8.708;2023-02-01T09:21:06;6.70;99.90
46340;DHT22;47273;49.274;8.708;2023-02-01T09:23:33;6.80;99.90
46340;DHT22;47273;49.274;8.708;2023-02-01T09:26:03;6.70;99.90
46340;DHT22;47273;49.274;8.708;2023-02-01T09:28:29;6.70;99.90
46340;DHT22;47273;49.274;8.708;2023-02-01T09:30:59;6.80;99.90
46340;DHT22;47273;49.274;8.708;2023-02-01T09:33:27;6.70;99.90
46340;DHT22;47273;49.274;8.708;2023-02-01T09:36:01;6.80;99.90
46340;DHT22;47273;49.274;8.708;2023-02-01T09:38:27;6.70;99.90
46340;DHT22;47273;49.274;8.708;2023-02-01T09:40:54;6.70;99.90
46340;DHT22;47273;49.274;8.708;2023-02-01T09:44:13;6.70;99.90
46340;DHT22;47273;49.274;8.708;2023-02-01T09:46:29;6.60;99.90
46340;DHT22;47273;49.274;8.708;2023-02-01T09:48:58;6.60;99.90
46340;DHT22;47273;49.274;8.708;2023-02-01T09:51:38;6.60;99.90
46340;DHT22;47273;49.274;8.708;2023-02-01T09:54:13;6.60;99.90
46340;DHT22;47273;49.274;8.708;2023-02-01T09:56:47;6.60;99.90
46340;DHT22;47273;49.274;8.708;2023-02-01T09:59:41;6.60;99.90
46340;DHT22;47273;49.274;8.708;2023-02-01T10:02:20;6.70;99.90
46340;DHT22;47273;49.274;8.708;2023-02-01T10:04:47;6.80;99.90
46340;DHT22;47273;49.274;8.708;2023-02-01T10:16:11;7.00;99.90
46340;DHT22;47273;49.274;8.708;2023-02-01T10:18:44;7.00;99.90
46340;DHT22;47273;49.274;8.708;2023-02-01T10:21:32;7.00;99.90
46340;DHT22;47273;49.274;8.708;2023-02-01T10:24:42;7.00;99.90
46340;DHT22;47273;49.274;8.708;2023-02-01T10:27:25;7.00;99.90
46340;DHT22;47273;49.274;8.708;2023-02-01T10:29:59;7.00;99.90
46340;DHT22;47273;49.274;8.708;2023-02-01T10:32:31;7.00;99.90
46340;DHT22;47273;49.274;8.708;2023-02-01T10:34:59;7.00;99.90
46340;DHT22;47273;49.274;8.708;2023-02-01T10:37:33;7.00;99.90
46340;DHT22;47273;49.274;8.708;2023-02-01T10:42:37;7.00;99.90
46340;DHT22;47273;49.274;8.708;2023-02-01T10:45:11;6.90;99.90
46340;DHT22;47273;49.274;8.708;2023-02-01T10:47:38;6.90;99.90
46340;DHT22;47273;49.274;8.708;2023-02-01T10:52:55;6.90;99.90
46340;DHT22;47273;49.274;8.708;2023-02-01T10:58:36;6.80;99.90
46340;DHT22;47273;49.274;8.708;2023-02-01T11:04:18;6.70;99.90
46340;DHT22;47273;49.274;8.708;2023-02-01T11:06:52;6.70;99.90
46340;DHT22;47273;49.274;8.708;2023-02-01T11:09:22;6.70;99.90
46340;DHT22;47273;49.274;8.708;2023-02-01T11:14:35;6.70;99.90
46340;DHT22;47273;49.274;8.708;2023-02-01T11:17:26;6.70;99.90
46340;DHT22;47273;49.274;8.708;2023-02-01T11:20:03;6.70;99.90
46340;DHT22;47273;49.274;8.708;2023-02-01T11:22:29;6.80;99.90
46340;DHT22;47273;49.274;8.708;2023-02-01T11:24:56;6.80;99.90
46340;DHT22;47273;49.274;8.708;2023-02-01T11:27:24;6.80;99.90
46340;DHT22;47273;49.274;8.708;2023-02-01T11:29:52;6.80;99.90
46340;DHT22;47273;49.274;8.708;2023-02-01T11:32:20;6.80;99.90
46340;DHT22;47273;49.274;8.708;2023-02-01T11:35:01;6.70;99.90
46340;DHT22;47273;49.274;8.708;2023-02-01T11:37:34;6.70;99.90
46340;DHT22;47273;49.274;8.708;2023-02-01T11:40:22;6.80;99.90
46340;DHT22;47273;49.274;8.708;2023-02-01T11:42:58;6.80;99.90
46340;DHT22;47273;49.274;8.708;2023-02-01T11:47:58;6.80;99.90
46340;DHT22;47273;49.274;8.708;2023-02-01T11:56:37;6.80;99.90
46340;DHT22;47273;49.274;8.708;2023-02-01T12:22:13;6.80;99.90
46340;DHT22;47273;49.274;8.708;2023-02-01T12:35:54;6.90;99.90
46340;DHT22;47273;49.274;8.708;2023-02-01T12:38:37;6.90;99.90
46340;DHT22;47273;49.274;8.708;2023-02-01T12:44:39;6.90;99.90
46340;DHT22;47273;49.274;8.708;2023-02-01T12:49:44;6.80;99.90
46340;DHT22;47273;49.274;8.708;2023-02-01T12:52:22;6.90;99.90
46340;DHT22;47273;49.274;8.708;2023-02-01T12:54:50;6.90;99.90
46340;DHT22;47273;49.274;8.708;2023-02-01T12:57:30;6.80;99.90
46340;DHT22;47273;49.274;8.708;2023-02-01T13:03:01;6.80;99.90
46340;DHT22;47273;49.274;8.708;2023-02-01T13:05:34;6.80;99.90
46340;DHT22;47273;49.274;8.708;2023-02-01T13:08:08;6.80;99.90
46340;DHT22;47273;49.274;8.708;2023-02-01T13:10:39;6.80;99.90
46340;DHT22;47273;49.274;8.708;2023-02-01T13:13:18;6.80;99.90
46340;DHT22;47273;49.274;8.708;2023-02-01T13:18:33;6.80;99.90
46340;DHT22;47273;49.274;8.708;2023-02-01T13:21:18;6.80;99.90
46340;DHT22;47273;49.274;8.708;2023-02-01T13:23:48;6.80;99.90
46340;DHT22;47273;49.274;8.708;2023-02-01T13:26:14;6.80;99.90
46340;DHT22;47273;49.274;8.708;2023-02-01T13:28:47;6.80;99.90
46340;DHT22;47273;49.274;8.708;2023-02-01T13:34:25;6.80;99.90
46340;DHT22;47273;49.274;8.708;2023-02-01T13:40:17;6.90;99.90
46340;DHT22;47273;49.274;8.708;2023-02-01T13:42:50;6.90;99.90
46340;DHT22;47273;49.274;8.708;2023-02-01T13:45:22;6.90;99.90
46340;DHT22;47273;49.274;8.708;2023-02-01T13:48:02;6.90;99.90
46340;DHT22;47273;49.274;8.708;2023-02-01T13:50:37;6.90;99.90
46340;DHT22;47273;49.274;8.708;2023-02-01T13:55:40;6.90;99.90
46340;DHT22;47273;49.274;8.708;2023-02-01T13:58:20;6.90;99.90
46340;DHT22;47273;49.274;8.708;2023-02-01T14:00:50;6.90;99.90
46340;DHT22;47273;49.274;8.708;2023-02-01T14:03:42;6.90;99.90
46340;DHT22;47273;49.274;8.708;2023-02-01T14:09:44;6.90;99.90
46340;DHT22;47273;49.274;8.708;2023-02-01T14:12:42;6.90;99.90
46340;DHT22;47273;49.274;8.708;2023-02-01T14:15:29;6.90;99.90
46340;DHT22;47273;49.274;8.708;2023-02-01T14:17:55;6.90;99.90
46340;DHT22;47273;49.274;8.708;2023-02-01T14:23:12;6.90;99.90
46340;DHT22;47273;49.274;8.708;2023-02-01T14:25:40;6.90;99.90
46340;DHT22;47273;49.274;8.708;2023-02-01T14:28:22;6.90;99.90
46340;DHT22;47273;49.274;8.708;2023-02-01T14:30:49;6.90;99.90
46340;DHT22;47273;49.274;8.708;2023-02-01T14:33:21;7.00;99.90
46340;DHT22;47273;49.274;8.708;2023-02-01T14:36:09;7.00;99.90
46340;DHT22;47273;49.274;8.708;2023-02-01T14:38:36;7.00;99.90
46340;DHT22;47273;49.274;8.708;2023-02-01T14:41:26;7.00;99.90
46340;DHT22;47273;49.274;8.708;2023-02-01T14:49:55;7.00;99.90
46340;DHT22;47273;49.274;8.708;2023-02-01T14:52:29;7.00;99.90
46340;DHT22;47273;49.274;8.708;2023-02-01T14:54:57;6.90;99.90
46340;DHT22;47273;49.274;8.708;2023-02-01T14:57:26;6.90;99.90
46340;DHT22;47273;49.274;8.708;2023-02-01T15:00:05;6.90;99.90
46340;DHT22;47273;49.274;8.708;2023-02-01T15:02:34;6.90;99.90
46340;DHT22;47273;49.274;8.708;2023-02-01T15:05:01;7.00;99.90
46340;DHT22;47273;49.274;8.708;2023-02-01T15:07:31;7.00;99.90
46340;DHT22;47273;49.274;8.708;2023-02-01T15:09:58;7.00;99.90
46340;DHT22;47273;49.274;8.708;2023-02-01T15:12:40;7.00;99.90
46340;DHT22;47273;49.274;8.708;2023-02-01T15:15:24;7.00;99.90
46340;DHT22;47273;49.274;8.708;2023-02-01T15:17:55;7.00;99.90
46340;DHT22;47273;49.274;8.708;2023-02-01T15:20:27;7.00;99.90
46340;DHT22;47273;49.274;8.708;2023-02-01T15:23:00;7.00;99.90
46340;DHT22;47273;49.274;8.708;2023-02-01T15:25:28;7.00;99.90
46340;DHT22;47273;49.274;8.708;2023-02-01T15:27:56;7.00;99.90
46340;DHT22;47273;49.274;8.708;2023-02-01T15:30:25;7.00;99.90
46340;DHT22;47273;49.274;8.708;2023-02-01T15:33:06;7.00;99.90
46340;DHT22;47273;49.274;8.708;2023-02-01T15:41:04;7.00;99.90
46340;DHT22;47273;49.274;8.708;2023-02-01T15:43:39;7.00;99.90
46340;DHT22;47273;49.274;8.708;2023-02-01T15:46:36;7.00;99.90
46340;DHT22;47273;49.274;8.708;2023-02-01T15:49:03;7.00;99.90
46340;DHT22;47273;49.274;8.708;2023-02-01T15:51:31;7.00;99.90
46340;DHT22;47273;49.274;8.708;2023-02-01T15:57:04;7.00;99.90
46340;DHT22;47273;49.274;8.708;2023-02-01T15:59:45;7.10;99.90
46340;DHT22;47273;49.274;8.708;2023-02-01T16:02:52;7.00;99.90
46340;DHT22;47273;49.274;8.708;2023-02-01T16:05:38;7.00;99.90
46340;DHT22;47273;49.274;8.708;2023-02-01T16:10:49;7.00;99.90
46340;DHT22;47273;49.274;8.708;2023-02-01T16:13:16;7.10;99.90
46340;DHT22;47273;49.274;8.708;2023-02-01T16:15:42;7.10;99.90
46340;DHT22;47273;49.274;8.708;2023-02-01T16:18:08;7.00;99.90
46340;DHT22;47273;49.274;8.708;2023-02-01T16:20:36;7.10;99.90
46340;DHT22;47273;49.274;8.708;2023-02-01T16:23:03;7.10;99.90
46340;DHT22;47273;49.274;8.708;2023-02-01T16:25:29;7.10;99.90
46340;DHT22;47273;49.274;8.708;2023-02-01T16:27:55;7.10;99.90
46340;DHT22;47273;49.274;8.708;2023-02-01T16:30:21;7.10;99.90
46340;DHT22;47273;49.274;8.708;2023-02-01T16:32:51;7.10;99.90
46340;DHT22;47273;49.274;8.708;2023-02-01T16:35:29;7.10;99.90
46340;DHT22;47273;49.274;8.708;2023-02-01T16:37:58;7.10;99.90
46340;DHT22;47273;49.274;8.708;2023-02-01T16:40:24;7.10;99.90
46340;DHT22;47273;49.274;8.708;2023-02-01T16:42:51;7.10;99.90
46340;DHT22;47273;49.274;8.708;2023-02-01T16:45:18;7.10;99.90
46340;DHT22;47273;49.274;8.708;2023-02-01T16:47:49;7.10;99.90
46340;DHT22;47273;49.274;8.708;2023-02-01T16:50:20;7.10;99.90
46340;DHT22;47273;49.274;8.708;2023-02-01T16:52:46;7.00;99.90
46340;DHT22;47273;49.274;8.708;2023-02-01T16:55:13;7.10;99.90
46340;DHT22;47273;49.274;8.708;2023-02-01T16:57:41;7.10;99.90
46340;DHT22;47273;49.274;8.708;2023-02-01T17:00:11;7.10;99.90
46340;DHT22;47273;49.274;8.708;2023-02-01T17:02:37;7.10;99.90
46340;DHT22;47273;49.274;8.708;2023-02-01T17:05:04;7.10;99.90
46340;DHT22;47273;49.274;8.708;2023-02-01T17:07:31;7.10;99.90
46340;DHT22;47273;49.274;8.708;2023-02-01T17:09:56;7.10;99.90
46340;DHT22;47273;49.274;8.708;2023-02-01T17:12:27;7.10;99.90
46340;DHT22;47273;49.274;8.708;2023-02-01T17:14:54;7.10;99.90
46340;DHT22;47273;49.274;8.708;2023-02-01T17:17:21;7.10;99.90
46340;DHT22;47273;49.274;8.708;2023-02-01T17:19:49;7.00;99.90
46340;DHT22;47273;49.274;8.708;2023-02-01T17:22:21;7.10;99.90
46340;DHT22;47273;49.274;8.708;2023-02-01T17:24:48;7.10;99.90
46340;DHT22;47273;49.274;8.708;2023-02-01T17:27:14;7.10;99.90
46340;DHT22;47273;49.274;8.708;2023-02-01T17:29:40;7.00;99.90
46340;DHT22;47273;49.274;8.708;2023-02-01T17:32:22;7.10;99.90
46340;DHT22;47273;49.274;8.708;2023-02-01T17:34:48;7.10;99.90
46340;DHT22;47273;49.274;8.708;2023-02-01T17:39:47;7.10;99.90
46340;DHT22;47273;49.274;8.708;2023-02-01T17:42:25;7.10;99.90
46340;DHT22;47273;49.274;8.708;2023-02-01T17:44:59;7.10;99.90
46340;DHT22;47273;49.274;8.708;2023-02-01T17:47:25;7.10;99.90
46340;DHT22;47273;49.274;8.708;2023-02-01T17:49:50;7.10;99.90
46340;DHT22;47273;49.274;8.708;2023-02-01T17:52:23;7.10;99.90
46340;DHT22;47273;49.274;8.708;2023-02-01T17:54:52;7.10;99.90
46340;DHT22;47273;49.274;8.708;2023-02-01T17:57:18;7.10;99.90
46340;DHT22;47273;49.274;8.708;2023-02-01T17:59:44;7.10;99.90
46340;DHT22;47273;49.274;8.708;2023-02-01T18:02:21;7.10;99.90
46340;DHT22;47273;49.274;8.708;2023-02-01T18:04:48;7.10;99.90
46340;DHT22;47273;49.274;8.708;2023-02-01T18:07:15;7.10;99.90
46340;DHT22;47273;49.274;8.708;2023-02-01T18:09:41;7.10;99.90
46340;DHT22;47273;49.274;8.708;2023-02-01T18:12:21;7.10;99.90
46340;DHT22;47273;49.274;8.708;2023-02-01T18:14:48;7.10;99.90
46340;DHT22;47273;49.274;8.708;2023-02-01T18:17:13;7.10;99.90
46340;DHT22;47273;49.274;8.708;2023-02-01T18:19:39;7.10;99.90
46340;DHT22;47273;49.274;8.708;2023-02-01T18:22:05;7.10;99.90
46340;DHT22;47273;49.274;8.708;2023-02-01T18:24:34;7.10;99.90
46340;DHT22;47273;49.274;8.708;2023-02-01T18:27:01;7.10;99.90
46340;DHT22;47273;49.274;8.708;2023-02-01T18:29:28;7.10;99.90
46340;DHT22;47273;49.274;8.708;2023-02-01T18:31:54;7.10;99.90
46340;DHT22;47273;49.274;8.708;2023-02-01T18:34:19;7.10;99.90
46340;DHT22;47273;49.274;8.708;2023-02-01T18:36:50;7.00;99.90
46340;DHT22;47273;49.274;8.708;2023-02-01T18:39:16;7.00;99.90
46340;DHT22;47273;49.274;8.708;2023-02-01T18:41:45;7.00;99.90
46340;DHT22;47273;49.274;8.708;2023-02-01T18:44:15;7.10;99.90